地図

経路データ

SID SEASON NUMBER BASIN SUBBASIN NAME ISO_TIME NATURE LAT LON WMO_WIND WMO_PRES WMO_AGENCY TRACK_TYPE DIST2LAND LANDFALL IFLAG USA_AGENCY USA_ATCF_ID USA_LAT USA_LON USA_RECORD USA_STATUS USA_WIND USA_PRES USA_SSHS USA_R34_NE USA_R34_SE USA_R34_SW USA_R34_NW USA_R50_NE USA_R50_SE USA_R50_SW USA_R50_NW USA_R64_NE USA_R64_SE USA_R64_SW USA_R64_NW USA_POCI USA_ROCI USA_RMW USA_EYE TOKYO_LAT TOKYO_LON TOKYO_GRADE TOKYO_WIND TOKYO_PRES TOKYO_R50_DIR TOKYO_R50_LONG TOKYO_R50_SHORT TOKYO_R30_DIR TOKYO_R30_LONG TOKYO_R30_SHORT TOKYO_LAND CMA_LAT CMA_LON CMA_CAT CMA_WIND CMA_PRES HKO_LAT HKO_LON HKO_CAT HKO_WIND HKO_PRES NEWDELHI_LAT NEWDELHI_LON NEWDELHI_GRADE NEWDELHI_WIND NEWDELHI_PRES NEWDELHI_CI NEWDELHI_DP NEWDELHI_POCI REUNION_LAT REUNION_LON REUNION_TYPE REUNION_WIND REUNION_PRES REUNION_TNUM REUNION_CI REUNION_RMW REUNION_R34_NE REUNION_R34_SE REUNION_R34_SW REUNION_R34_NW REUNION_R50_NE REUNION_R50_SE REUNION_R50_SW REUNION_R50_NW REUNION_R64_NE REUNION_R64_SE REUNION_R64_SW REUNION_R64_NW BOM_LAT BOM_LON BOM_TYPE BOM_WIND BOM_PRES BOM_TNUM BOM_CI BOM_RMW BOM_R34_NE BOM_R34_SE BOM_R34_SW BOM_R34_NW BOM_R50_NE BOM_R50_SE BOM_R50_SW BOM_R50_NW BOM_R64_NE BOM_R64_SE BOM_R64_SW BOM_R64_NW BOM_ROCI BOM_POCI BOM_EYE BOM_POS_METHOD BOM_PRES_METHOD NADI_LAT NADI_LON NADI_CAT NADI_WIND NADI_PRES WELLINGTON_LAT WELLINGTON_LON WELLINGTON_WIND WELLINGTON_PRES DS824_LAT DS824_LON DS824_STAGE DS824_WIND DS824_PRES TD9636_LAT TD9636_LON TD9636_STAGE TD9636_WIND TD9636_PRES TD9635_LAT TD9635_LON TD9635_WIND TD9635_PRES TD9635_ROCI NEUMANN_LAT NEUMANN_LON NEUMANN_CLASS NEUMANN_WIND NEUMANN_PRES MLC_LAT MLC_LON MLC_CLASS MLC_WIND MLC_PRES USA_GUST BOM_GUST BOM_GUST_PER REUNION_GUST REUNION_GUST_PER USA_SEAHGT USA_SEARAD_NE USA_SEARAD_SE USA_SEARAD_SW USA_SEARAD_NW STORM_SPEED STORM_DIR
1871289N15294 1871 29 NA CS NOT_NAMED 1871-10-15 18:00:00 TS 14.5000 -65.7000 main 384 327 _____________O -1 14.5000 -65.7000 TD 30 10 344
1871289N15294 1871 29 NA CS NOT_NAMED 1871-10-15 21:00:00 TS 15.0000 -65.8474 main 327 269 _____________P -1 15.0000 -65.8474 TD 30 10 344
1871289N15294 1871 29 NA CS NOT_NAMED 1871-10-16 00:00:00 TS 15.5000 -66.0000 main 269 212 _____________O -1 15.5000 -66.0000 TD 30 11 343
1871289N15294 1871 29 NA CS NOT_NAMED 1871-10-16 03:00:00 TS 16.0000 -66.1575 main 212 157 _____________P -1 16.0000 -66.1575 TD 30 10 344
1871289N15294 1871 29 NA CS NOT_NAMED 1871-10-16 06:00:00 TS 16.5000 -66.3000 main 157 102 _____________O -1 16.5000 -66.3000 TD 30 10 346
1871289N15294 1871 29 NA CS NOT_NAMED 1871-10-16 09:00:00 TS 16.9925 -66.4076 main 102 54 _____________P -1 16.9925 -66.4076 TD 30 10 349
1871289N15294 1871 29 NA CS NOT_NAMED 1871-10-16 12:00:00 TS 17.5000 -66.5000 main 54 0 _____________O -1 17.5000 -66.5000 TD 30 11 351
1871289N15294 1871 29 NA NA NOT_NAMED 1871-10-16 15:00:00 TS 18.0500 -66.5926 main 0 0 _____________P -1 18.0500 -66.5926 TD 32 11 350
1871289N15294 1871 29 NA NA NOT_NAMED 1871-10-16 18:00:00 TS 18.6000 -66.7000 main 22 22 _____________O -1 18.6000 -66.7000 TS 35 11 347
1871289N15294 1871 29 NA NA NOT_NAMED 1871-10-16 21:00:00 TS 19.1000 -66.8426 main 78 78 _____________P -1 19.1000 -66.8426 TS 37 10 344
1871289N15294 1871 29 NA NA NOT_NAMED 1871-10-17 00:00:00 TS 19.6000 -67.0000 main 134 134 _____________O -1 19.6000 -67.0000 TS 40 11 344
1871289N15294 1871 29 NA NA NOT_NAMED 1871-10-17 03:00:00 TS 20.1500 -67.1575 main 201 201 _____________P -1 20.1500 -67.1575 TS 45 11 346
1871289N15294 1871 29 NA NA NOT_NAMED 1871-10-17 06:00:00 TS 20.7000 -67.3000 main 252 252 _____________O -1 20.7000 -67.3000 TS 50 11 348
1871289N15294 1871 29 NA NA NOT_NAMED 1871-10-17 09:00:00 TS 21.2000 -67.4003 main 290 290 _____________P -1 21.2000 -67.4003 TS 55 10 349
1871289N15294 1871 29 NA NA NOT_NAMED 1871-10-17 12:00:00 TS 21.7000 -67.5000 main 327 327 _____________O -1 21.7000 -67.5000 TS 60 11 348
1871289N15294 1871 29 NA NA NOT_NAMED 1871-10-17 15:00:00 TS 22.2500 -67.6499 main 379 374 _____________P -1 22.2500 -67.6499 TS 60 11 346
1871289N15294 1871 29 NA NA NOT_NAMED 1871-10-17 18:00:00 TS 22.8000 -67.8000 main 421 421 _____________O -1 22.8000 -67.8000 TS 60 11 348
1871289N15294 1871 29 NA NA NOT_NAMED 1871-10-17 21:00:00 TS 23.3000 -67.9003 main 467 467 _____________P -1 23.3000 -67.9003 TS 65 10 349
1871289N15294 1871 29 NA NA NOT_NAMED 1871-10-18 00:00:00 TS 23.8000 -68.0000 main 513 513 _____________O -1 23.8000 -68.0000 HU 70 11 348
1871289N15294 1871 29 NA NA NOT_NAMED 1871-10-18 03:00:00 TS 24.3500 -68.1499 main 571 567 _____________P -1 24.3500 -68.1499 HU 70 11 346
1871289N15294 1871 29 NA NA NOT_NAMED 1871-10-18 06:00:00 TS 24.9000 -68.3000 main 617 617 _____________O -1 24.9000 -68.3000 HU 70 11 347
1871289N15294 1871 29 NA NA NOT_NAMED 1871-10-18 09:00:00 TS 25.4000 -68.4077 main 663 663 _____________P -1 25.4000 -68.4077 HU 70 10 350
1871289N15294 1871 29 NA NA NOT_NAMED 1871-10-18 12:00:00 TS 25.9000 -68.5000 main 697 697 _____________O -1 25.9000 -68.5000 HU 70 11 351
1871289N15294 1871 29 NA NA NOT_NAMED 1871-10-18 15:00:00 TS 26.4350 -68.6001 main 733 733 _____________P -1 26.4350 -68.6001 HU 70 11 351
1871289N15294 1871 29 NA NA NOT_NAMED 1871-10-18 18:00:00 TS 27.0000 -68.7000 main 781 781 _____________O -1 27.0000 -68.7000 HU 70 12 351
1871289N15294 1871 29 NA NA NOT_NAMED 1871-10-18 21:00:00 TS 27.5700 -68.8148 main 831 831 _____________P -1 27.5700 -68.8148 HU 70 12 352
1871289N15294 1871 29 NA NA NOT_NAMED 1871-10-19 00:00:00 TS 28.2000 -68.9000 main 884 884 _____________O -1 28.2000 -68.9000 HU 70 14 355
1871289N15294 1871 29 NA NA NOT_NAMED 1871-10-19 03:00:00 TS 28.9275 -68.9446 main 953 904 _____________P -1 28.9275 -68.9446 HU 70 15 0
1871289N15294 1871 29 NA NA NOT_NAMED 1871-10-19 06:00:00 TS 29.7000 -68.9000 main 904 861 _____________O -1 29.7000 -68.9000 HU 70 15 6
1871289N15294 1871 29 NA NA NOT_NAMED 1871-10-19 09:00:00 TS 30.4273 -68.7667 main 861 825 _____________P -1 30.4273 -68.7667 HU 70 15 13
1871289N15294 1871 29 NA NA NOT_NAMED 1871-10-19 12:00:00 TS 31.2000 -68.5000 main 825 794 _____________O -1 31.2000 -68.5000 HU 70 18 19
1871289N15294 1871 29 NA NA NOT_NAMED 1871-10-19 15:00:00 TS 32.0775 -68.1024 main 795 783 _____________P -1 32.0775 -68.1024 HU 70 20 23
1871289N15294 1871 29 NA NA NOT_NAMED 1871-10-19 18:00:00 TS 33.0000 -67.6000 main 787 782 _____________O -1 33.0000 -67.6000 HU 70 20 24
1871289N15294 1871 29 NA NA NOT_NAMED 1871-10-19 21:00:00 TS 33.8830 -67.1652 main 784 784 _____________P -1 33.8830 -67.1652 HU 70 20 27
1871289N15294 1871 29 NA NA NOT_NAMED 1871-10-20 00:00:00 TS 34.8000 -66.5000 main 822 772 _____________O -1 34.8000 -66.5000 HU 70 24 39
1871289N15294 1871 29 NA NA NOT_NAMED 1871-10-20 03:00:00 TS 35.7721 -65.3336 main 772 749 _____________P -1 35.7721 -65.3336 HU 70 28 45
1871289N15294 1871 29 NA NA NOT_NAMED 1871-10-20 06:00:00 TS 36.8000 -64.0000 main 749 671 _____________O -1 36.8000 -64.0000 HU 70 27 43
1871289N15294 1871 29 NA NA NOT_NAMED 1871-10-20 09:00:00 TS 37.7806 -63.0158 main 663 584 _____________P -1 37.7806 -63.0158 HU 65 28 38
1871289N15294 1871 29 NA NA NOT_NAMED 1871-10-20 12:00:00 ET 39.0000 -61.8000 main 579 512 _____________O -1 39.0000 -61.8000 EX 60 39 40
1871289N15294 1871 29 NA NA NOT_NAMED 1871-10-20 15:00:00 ET 40.7314 -59.8210 main 506 416 _____________P -1 40.7314 -59.8210 EX 55 48 43
1871289N15294 1871 29 NA NA NOT_NAMED 1871-10-20 18:00:00 ET 42.5000 -57.5000 main 414 334 _____________O -1 42.5000 -57.5000 EX 50 46 47
1871289N15294 1871 29 NA NA NOT_NAMED 1871-10-20 21:00:00 ET 43.8847 -55.2989 main 323 189 _____________P -1 43.8847 -55.2989 EX 45 40 51
1871289N15294 1871 29 NA NA NOT_NAMED 1871-10-21 00:00:00 ET 45.0000 -53.2000 main 177 _____________O -1 45.0000 -53.2000 EX 40 37 53

IBTrACS Databaseについて

本データベースは、米国NOAAが公開する1842年以降の世界の熱帯低気圧のベストトラックデータアーカイブInternational Best Track Archive for Climate Stewardship (IBTrACS)を、ウェブで閲覧しやすい形式に変換したものです。

最終更新日:2021-10-08